This is the latest recevied weather packets stored in our database for station/object OE6PLD-13. If no packets are shown the sender has not sent any weather packets the latest 10 day(s).
| Time | Temp. | Humidity | Pressure | Rain* | Wind** | Luminosity | Snow |
|---|---|---|---|---|---|---|---|
| 1777489725 | 10° C | 50% | 1014.2 hPa | 0.76 mm | - | 0 W/m² | - |
| 1777489542 | 10° C | 50% | 1014 hPa | 0.76 mm | - | 0 W/m² | - |
| 1777489359 | 8.89° C | 55% | 1014.1 hPa | 0.76 mm | - | 0 W/m² | - |
| 1777489175 | 7.22° C | 70% | 1014.1 hPa | 0.76 mm | - | 0 W/m² | - |
| 1777488992 | 7.22° C | 69% | 1014 hPa | 0.76 mm | - | 0 W/m² | - |
| 1777488808 | 6.67° C | 70% | 1013.5 hPa | 0.76 mm | - | 0 W/m² | - |
| 1777488625 | 7.22° C | 68% | 1013.5 hPa | 0.76 mm | - | 0 W/m² | - |
| 1777488442 | 7.22° C | 67% | 1013.5 hPa | 0.76 mm | - | 0 W/m² | - |
| 1777488258 | 8.33° C | 66% | 1013.5 hPa | 0.76 mm | - | 0 W/m² | - |
| 1777488075 | 8.89° C | 65% | 1013.2 hPa | 0.76 mm | - | 0 W/m² | - |
| 1777487892 | 8.89° C | 65% | 1013.3 hPa | 0.76 mm | - | 0 W/m² | - |
| 1777487708 | 8.89° C | 64% | 1013.2 hPa | 0.76 mm | - | 0 W/m² | - |
| 1777487525 | 8.89° C | 63% | 1013 hPa | 0.76 mm | - | 0 W/m² | - |
| 1777487342 | 8.89° C | 63% | 1013.1 hPa | 0.76 mm | - | 0 W/m² | - |
| 1777487158 | 8.89° C | 62% | 1013.2 hPa | 0.76 mm | - | 0 W/m² | - |
| 1777486975 | 8.89° C | 65% | 1013.1 hPa | 0.76 mm | - | 0 W/m² | - |
| 1777486792 | 8.89° C | 62% | 1013.1 hPa | 0.76 mm | - | 0 W/m² | - |
| 1777486608 | 8.89° C | 62% | 1013.1 hPa | 0.76 mm | - | 0 W/m² | - |
| 1777486425 | 9.44° C | 62% | 1012.9 hPa | 0.76 mm | - | 0 W/m² | - |
| 1777486242 | 10.56° C | 59% | 1012.9 hPa | 0.76 mm | - | 0 W/m² | - |
| 1777485508 | 11.11° C | 55% | 1012.6 hPa | 0.76 mm | - | 2 W/m² | - |
| 1777485325 | 11.11° C | 54% | 1012.6 hPa | 0.76 mm | - | 2 W/m² | - |
| 1777485142 | 11.67° C | 54% | 1012.5 hPa | 0.76 mm | - | 5 W/m² | - |
| 1777484958 | 11.67° C | 53% | 1012.4 hPa | 0.76 mm | - | 6 W/m² | - |
| 1777484775 | 12.22° C | 52% | 1012.4 hPa | 0.76 mm | - | 7 W/m² | - |
* Rain latest hour (hover to see other rain measurements)
** Current wind speed in m/s (hover to see current wind gust speed)